sensor_id;sensor_type;location;lat;lon;timestamp;temperature;humidity
3190;DHT22;1606;51.946;10.558;2022-08-05T00:01:30;28.20;81.80
3190;DHT22;1606;51.946;10.558;2022-08-05T00:04:03;27.80;82.40
3190;DHT22;1606;51.946;10.558;2022-08-05T00:06:34;27.10;85.00
3190;DHT22;1606;51.946;10.558;2022-08-05T00:09:04;26.60;87.70
3190;DHT22;1606;51.946;10.558;2022-08-05T00:11:40;26.30;89.50
3190;DHT22;1606;51.946;10.558;2022-08-05T00:14:20;25.80;91.20
3190;DHT22;1606;51.946;10.558;2022-08-05T00:16:57;25.80;91.90
3190;DHT22;1606;51.946;10.558;2022-08-05T00:19:27;26.10;91.40
3190;DHT22;1606;51.946;10.558;2022-08-05T00:22:09;26.50;90.70
3190;DHT22;1606;51.946;10.558;2022-08-05T00:24:39;27.00;90.40
3190;DHT22;1606;51.946;10.558;2022-08-05T00:27:08;27.10;90.70
3190;DHT22;1606;51.946;10.558;2022-08-05T00:29:42;27.40;90.50
3190;DHT22;1606;51.946;10.558;2022-08-05T00:32:10;27.60;90.40
3190;DHT22;1606;51.946;10.558;2022-08-05T00:34:41;27.00;90.80
3190;DHT22;1606;51.946;10.558;2022-08-05T00:37:29;26.20;93.30
3190;DHT22;1606;51.946;10.558;2022-08-05T00:40:19;26.10;95.00
3190;DHT22;1606;51.946;10.558;2022-08-05T00:42:54;26.10;95.80
3190;DHT22;1606;51.946;10.558;2022-08-05T00:45:22;26.40;96.40
3190;DHT22;1606;51.946;10.558;2022-08-05T00:48:05;26.80;98.00
3190;DHT22;1606;51.946;10.558;2022-08-05T00:50:33;27.00;98.90
3190;DHT22;1606;51.946;10.558;2022-08-05T00:53:02;27.00;99.70
3190;DHT22;1606;51.946;10.558;2022-08-05T00:55:51;26.80;99.90
3190;DHT22;1606;51.946;10.558;2022-08-05T00:58:18;25.90;99.90
3190;DHT22;1606;51.946;10.558;2022-08-05T01:00:53;25.70;99.90
3190;DHT22;1606;51.946;10.558;2022-08-05T01:03:21;25.90;99.90
3190;DHT22;1606;51.946;10.558;2022-08-05T01:05:56;25.80;99.90
3190;DHT22;1606;51.946;10.558;2022-08-05T01:08:24;25.70;99.90
3190;DHT22;1606;51.946;10.558;2022-08-05T01:11:13;25.40;99.90
3190;DHT22;1606;51.946;10.558;2022-08-05T01:13:57;25.20;99.90
3190;DHT22;1606;51.946;10.558;2022-08-05T01:16:32;25.40;99.90
3190;DHT22;1606;51.946;10.558;2022-08-05T01:19:09;25.40;99.90
3190;DHT22;1606;51.946;10.558;2022-08-05T01:21:51;25.50;99.90
3190;DHT22;1606;51.946;10.558;2022-08-05T01:24:50;25.50;99.90
3190;DHT22;1606;51.946;10.558;2022-08-05T01:27:38;25.60;99.90
3190;DHT22;1606;51.946;10.558;2022-08-05T01:30:21;25.60;99.90
3190;DHT22;1606;51.946;10.558;2022-08-05T01:33:02;25.60;99.90
3190;DHT22;1606;51.946;10.558;2022-08-05T01:35:38;25.60;99.90
3190;DHT22;1606;51.946;10.558;2022-08-05T01:38:20;25.90;99.90
3190;DHT22;1606;51.946;10.558;2022-08-05T01:40:56;25.90;99.90
3190;DHT22;1606;51.946;10.558;2022-08-05T01:43:27;26.10;99.90
3190;DHT22;1606;51.946;10.558;2022-08-05T01:45:56;26.30;99.90
3190;DHT22;1606;51.946;10.558;2022-08-05T01:48:34;26.40;99.90
3190;DHT22;1606;51.946;10.558;2022-08-05T01:51:03;25.70;99.90
3190;DHT22;1606;51.946;10.558;2022-08-05T01:53:39;25.80;99.90
3190;DHT22;1606;51.946;10.558;2022-08-05T01:56:27;25.90;99.90
3190;DHT22;1606;51.946;10.558;2022-08-05T01:59:19;25.80;99.90
3190;DHT22;1606;51.946;10.558;2022-08-05T02:01:49;25.60;99.90
3190;DHT22;1606;51.946;10.558;2022-08-05T02:04:21;25.50;99.90
3190;DHT22;1606;51.946;10.558;2022-08-05T02:06:51;25.50;99.90
3190;DHT22;1606;51.946;10.558;2022-08-05T02:09:19;25.20;99.90
3190;DHT22;1606;51.946;10.558;2022-08-05T02:11:54;24.80;99.90
3190;DHT22;1606;51.946;10.558;2022-08-05T02:14:31;25.00;99.90
3190;DHT22;1606;51.946;10.558;2022-08-05T02:17:05;25.10;99.90
3190;DHT22;1606;51.946;10.558;2022-08-05T02:19:58;25.10;99.90
3190;DHT22;1606;51.946;10.558;2022-08-05T02:22:29;25.10;99.90
3190;DHT22;1606;51.946;10.558;2022-08-05T02:25:03;25.00;99.90
3190;DHT22;1606;51.946;10.558;2022-08-05T02:27:35;24.80;99.90
3190;DHT22;1606;51.946;10.558;2022-08-05T02:30:30;24.50;99.90
3190;DHT22;1606;51.946;10.558;2022-08-05T02:33:01;24.00;99.90
3190;DHT22;1606;51.946;10.558;2022-08-05T02:35:33;23.60;99.90
3190;DHT22;1606;51.946;10.558;2022-08-05T02:38:16;23.30;99.90
3190;DHT22;1606;51.946;10.558;2022-08-05T02:40:52;22.80;99.90
3190;DHT22;1606;51.946;10.558;2022-08-05T02:43:21;22.80;99.90
3190;DHT22;1606;51.946;10.558;2022-08-05T02:45:51;23.20;99.90
3190;DHT22;1606;51.946;10.558;2022-08-05T02:48:20;23.40;99.90
3190;DHT22;1606;51.946;10.558;2022-08-05T02:50:57;23.50;99.90
3190;DHT22;1606;51.946;10.558;2022-08-05T02:53:26;23.70;99.90
3190;DHT22;1606;51.946;10.558;2022-08-05T02:56:05;23.50;99.90
3190;DHT22;1606;51.946;10.558;2022-08-05T02:58:35;23.60;99.90
3190;DHT22;1606;51.946;10.558;2022-08-05T03:01:16;23.80;99.90
3190;DHT22;1606;51.946;10.558;2022-08-05T03:03:48;23.20;99.90
3190;DHT22;1606;51.946;10.558;2022-08-05T03:06:29;23.10;99.90
3190;DHT22;1606;51.946;10.558;2022-08-05T03:09:18;23.50;99.90
3190;DHT22;1606;51.946;10.558;2022-08-05T03:12:02;23.00;99.90
3190;DHT22;1606;51.946;10.558;2022-08-05T03:14:30;23.30;99.90
3190;DHT22;1606;51.946;10.558;2022-08-05T03:16:59;23.20;99.90
3190;DHT22;1606;51.946;10.558;2022-08-05T03:19:34;23.10;99.90
3190;DHT22;1606;51.946;10.558;2022-08-05T03:22:02;22.90;99.90
3190;DHT22;1606;51.946;10.558;2022-08-05T03:24:43;22.80;99.90
3190;DHT22;1606;51.946;10.558;2022-08-05T03:27:16;22.70;99.90
3190;DHT22;1606;51.946;10.558;2022-08-05T03:29:44;22.70;99.90
3190;DHT22;1606;51.946;10.558;2022-08-05T03:32:33;22.70;99.90
3190;DHT22;1606;51.946;10.558;2022-08-05T03:35:02;22.50;99.90
3190;DHT22;1606;51.946;10.558;2022-08-05T03:37:31;22.20;99.90
3190;DHT22;1606;51.946;10.558;2022-08-05T03:40:12;22.40;99.90
3190;DHT22;1606;51.946;10.558;2022-08-05T03:42:50;22.70;99.90
3190;DHT22;1606;51.946;10.558;2022-08-05T03:45:19;22.70;99.90
3190;DHT22;1606;51.946;10.558;2022-08-05T03:47:50;22.90;99.90
3190;DHT22;1606;51.946;10.558;2022-08-05T03:50:23;23.30;99.90
3190;DHT22;1606;51.946;10.558;2022-08-05T03:52:56;23.50;99.90
3190;DHT22;1606;51.946;10.558;2022-08-05T03:55:49;23.70;99.90
3190;DHT22;1606;51.946;10.558;2022-08-05T03:58:42;23.40;99.90
3190;DHT22;1606;51.946;10.558;2022-08-05T04:01:12;23.10;99.90
3190;DHT22;1606;51.946;10.558;2022-08-05T04:03:48;22.90;99.90
3190;DHT22;1606;51.946;10.558;2022-08-05T04:06:36;22.80;99.90
3190;DHT22;1606;51.946;10.558;2022-08-05T04:09:14;22.70;99.90
3190;DHT22;1606;51.946;10.558;2022-08-05T04:11:52;22.60;99.90
3190;DHT22;1606;51.946;10.558;2022-08-05T04:14:24;22.90;99.90
3190;DHT22;1606;51.946;10.558;2022-08-05T04:16:57;23.00;99.90
3190;DHT22;1606;51.946;10.558;2022-08-05T04:19:28;23.20;99.90
3190;DHT22;1606;51.946;10.558;2022-08-05T04:21:56;23.40;99.90
3190;DHT22;1606;51.946;10.558;2022-08-05T04:24:37;23.40;99.90
3190;DHT22;1606;51.946;10.558;2022-08-05T04:27:10;23.30;99.90
3190;DHT22;1606;51.946;10.558;2022-08-05T04:29:39;23.30;99.90
3190;DHT22;1606;51.946;10.558;2022-08-05T04:32:07;23.50;99.90
3190;DHT22;1606;51.946;10.558;2022-08-05T04:34:37;23.60;99.90
3190;DHT22;1606;51.946;10.558;2022-08-05T04:37:09;23.60;99.90
3190;DHT22;1606;51.946;10.558;2022-08-05T04:39:38;23.70;99.90
3190;DHT22;1606;51.946;10.558;2022-08-05T04:42:07;23.80;99.90
3190;DHT22;1606;51.946;10.558;2022-08-05T04:44:35;23.80;99.90
3190;DHT22;1606;51.946;10.558;2022-08-05T04:47:03;23.80;99.90
3190;DHT22;1606;51.946;10.558;2022-08-05T04:49:34;23.70;99.90
3190;DHT22;1606;51.946;10.558;2022-08-05T04:52:23;23.60;99.90
3190;DHT22;1606;51.946;10.558;2022-08-05T04:54:53;23.60;99.90
3190;DHT22;1606;51.946;10.558;2022-08-05T04:57:23;23.60;99.90
3190;DHT22;1606;51.946;10.558;2022-08-05T05:00:03;23.50;99.90
3190;DHT22;1606;51.946;10.558;2022-08-05T05:02:33;23.60;99.90
3190;DHT22;1606;51.946;10.558;2022-08-05T05:05:08;23.60;99.90
3190;DHT22;1606;51.946;10.558;2022-08-05T05:07:54;23.70;99.90
3190;DHT22;1606;51.946;10.558;2022-08-05T05:10:27;23.70;99.90
3190;DHT22;1606;51.946;10.558;2022-08-05T05:12:55;23.70;99.90
3190;DHT22;1606;51.946;10.558;2022-08-05T05:15:24;23.70;99.90
3190;DHT22;1606;51.946;10.558;2022-08-05T05:18:12;23.50;99.90
3190;DHT22;1606;51.946;10.558;2022-08-05T05:20:57;23.60;99.90
3190;DHT22;1606;51.946;10.558;2022-08-05T05:23:27;23.50;99.90
3190;DHT22;1606;51.946;10.558;2022-08-05T05:26:15;23.70;99.90
3190;DHT22;1606;51.946;10.558;2022-08-05T05:28:42;23.90;99.90
3190;DHT22;1606;51.946;10.558;2022-08-05T05:31:11;24.10;99.90
3190;DHT22;1606;51.946;10.558;2022-08-05T05:33:39;23.80;99.90
3190;DHT22;1606;51.946;10.558;2022-08-05T05:36:25;23.80;99.90
3190;DHT22;1606;51.946;10.558;2022-08-05T05:38:56;24.00;99.90
3190;DHT22;1606;51.946;10.558;2022-08-05T05:41:24;24.20;99.90
3190;DHT22;1606;51.946;10.558;2022-08-05T05:44:07;24.30;99.90
3190;DHT22;1606;51.946;10.558;2022-08-05T05:46:55;24.40;99.90
3190;DHT22;1606;51.946;10.558;2022-08-05T05:49:23;24.50;99.90
3190;DHT22;1606;51.946;10.558;2022-08-05T05:51:51;24.70;99.90
3190;DHT22;1606;51.946;10.558;2022-08-05T05:54:21;24.60;99.90
3190;DHT22;1606;51.946;10.558;2022-08-05T05:57:09;24.60;99.90
3190;DHT22;1606;51.946;10.558;2022-08-05T05:59:44;24.90;99.90
3190;DHT22;1606;51.946;10.558;2022-08-05T06:02:14;24.70;99.90
3190;DHT22;1606;51.946;10.558;2022-08-05T06:04:42;24.30;99.90
3190;DHT22;1606;51.946;10.558;2022-08-05T06:07:15;23.90;99.90
3190;DHT22;1606;51.946;10.558;2022-08-05T06:09:49;23.90;99.90
3190;DHT22;1606;51.946;10.558;2022-08-05T06:12:32;23.30;99.90
3190;DHT22;1606;51.946;10.558;2022-08-05T06:15:08;23.30;99.90
3190;DHT22;1606;51.946;10.558;2022-08-05T06:17:50;23.60;99.90
3190;DHT22;1606;51.946;10.558;2022-08-05T06:20:20;23.80;99.90
3190;DHT22;1606;51.946;10.558;2022-08-05T06:22:48;24.00;99.90
3190;DHT22;1606;51.946;10.558;2022-08-05T06:25:17;23.70;99.90
3190;DHT22;1606;51.946;10.558;2022-08-05T06:28:05;23.50;99.90
3190;DHT22;1606;51.946;10.558;2022-08-05T06:30:46;23.50;99.90
3190;DHT22;1606;51.946;10.558;2022-08-05T06:33:14;23.50;99.90
3190;DHT22;1606;51.946;10.558;2022-08-05T06:35:45;23.80;99.90
3190;DHT22;1606;51.946;10.558;2022-08-05T06:38:32;23.80;99.90
3190;DHT22;1606;51.946;10.558;2022-08-05T06:41:04;23.80;99.90
3190;DHT22;1606;51.946;10.558;2022-08-05T06:43:34;23.60;99.90
3190;DHT22;1606;51.946;10.558;2022-08-05T06:46:22;23.80;99.90
3190;DHT22;1606;51.946;10.558;2022-08-05T06:48:56;23.60;99.90
3190;DHT22;1606;51.946;10.558;2022-08-05T06:51:26;23.10;99.90
3190;DHT22;1606;51.946;10.558;2022-08-05T06:53:56;23.00;99.90
3190;DHT22;1606;51.946;10.558;2022-08-05T06:56:25;23.00;99.90
3190;DHT22;1606;51.946;10.558;2022-08-05T06:58:53;23.30;99.90
3190;DHT22;1606;51.946;10.558;2022-08-05T07:01:21;23.60;99.90
3190;DHT22;1606;51.946;10.558;2022-08-05T07:03:57;23.70;99.90
3190;DHT22;1606;51.946;10.558;2022-08-05T07:06:25;23.60;99.90
3190;DHT22;1606;51.946;10.558;2022-08-05T07:08:54;23.40;99.90
3190;DHT22;1606;51.946;10.558;2022-08-05T07:11:26;23.30;99.90
3190;DHT22;1606;51.946;10.558;2022-08-05T07:13:56;23.10;99.90
3190;DHT22;1606;51.946;10.558;2022-08-05T07:16:55;22.70;99.90
3190;DHT22;1606;51.946;10.558;2022-08-05T07:19:46;22.60;99.90
3190;DHT22;1606;51.946;10.558;2022-08-05T07:22:34;22.60;99.90
3190;DHT22;1606;51.946;10.558;2022-08-05T07:25:04;23.00;99.90
3190;DHT22;1606;51.946;10.558;2022-08-05T07:27:54;23.30;99.90
3190;DHT22;1606;51.946;10.558;2022-08-05T07:30:29;23.50;99.90
3190;DHT22;1606;51.946;10.558;2022-08-05T07:32:59;23.30;99.90
3190;DHT22;1606;51.946;10.558;2022-08-05T07:35:31;23.30;99.90
3190;DHT22;1606;51.946;10.558;2022-08-05T07:38:19;23.20;99.90
3190;DHT22;1606;51.946;10.558;2022-08-05T07:41:01;23.40;99.90
3190;DHT22;1606;51.946;10.558;2022-08-05T07:43:51;23.80;99.90
3190;DHT22;1606;51.946;10.558;2022-08-05T07:46:22;23.90;99.90
3190;DHT22;1606;51.946;10.558;2022-08-05T07:48:53;23.90;99.90
3190;DHT22;1606;51.946;10.558;2022-08-05T07:51:32;23.90;99.90
3190;DHT22;1606;51.946;10.558;2022-08-05T07:54:05;23.90;99.90
3190;DHT22;1606;51.946;10.558;2022-08-05T07:56:36;24.30;99.90
3190;DHT22;1606;51.946;10.558;2022-08-05T07:59:25;24.30;99.90
3190;DHT22;1606;51.946;10.558;2022-08-05T08:02:07;24.30;99.90
3190;DHT22;1606;51.946;10.558;2022-08-05T08:04:43;24.40;99.90
3190;DHT22;1606;51.946;10.558;2022-08-05T08:07:11;24.70;99.90
3190;DHT22;1606;51.946;10.558;2022-08-05T08:09:40;25.00;99.90
3190;DHT22;1606;51.946;10.558;2022-08-05T08:12:09;24.80;99.90
3190;DHT22;1606;51.946;10.558;2022-08-05T08:15:00;24.90;99.90
3190;DHT22;1606;51.946;10.558;2022-08-05T08:17:30;25.20;99.90
3190;DHT22;1606;51.946;10.558;2022-08-05T08:19:58;25.40;99.90
3190;DHT22;1606;51.946;10.558;2022-08-05T08:22:50;25.60;99.90
3190;DHT22;1606;51.946;10.558;2022-08-05T08:25:18;25.80;99.90
3190;DHT22;1606;51.946;10.558;2022-08-05T08:28:01;25.50;99.90
3190;DHT22;1606;51.946;10.558;2022-08-05T08:30:30;25.40;99.90
3190;DHT22;1606;51.946;10.558;2022-08-05T08:33:13;25.30;99.90
3190;DHT22;1606;51.946;10.558;2022-08-05T08:35:41;25.30;99.90
3190;DHT22;1606;51.946;10.558;2022-08-05T08:38:18;25.60;99.90
3190;DHT22;1606;51.946;10.558;2022-08-05T08:41:04;25.50;99.90
3190;DHT22;1606;51.946;10.558;2022-08-05T08:43:34;25.80;99.90
3190;DHT22;1606;51.946;10.558;2022-08-05T08:46:25;26.10;99.90
3190;DHT22;1606;51.946;10.558;2022-08-05T08:48:54;25.90;99.90
3190;DHT22;1606;51.946;10.558;2022-08-05T08:51:46;25.80;99.90
3190;DHT22;1606;51.946;10.558;2022-08-05T08:54:32;25.90;99.90
3190;DHT22;1606;51.946;10.558;2022-08-05T08:57:04;26.30;99.90
3190;DHT22;1606;51.946;10.558;2022-08-05T08:59:37;26.60;99.90
3190;DHT22;1606;51.946;10.558;2022-08-05T09:02:16;26.90;99.90
3190;DHT22;1606;51.946;10.558;2022-08-05T09:04:45;27.60;99.90
3190;DHT22;1606;51.946;10.558;2022-08-05T09:07:33;27.70;99.90
3190;DHT22;1606;51.946;10.558;2022-08-05T09:10:21;28.00;99.90
3190;DHT22;1606;51.946;10.558;2022-08-05T09:12:55;27.90;99.90
3190;DHT22;1606;51.946;10.558;2022-08-05T09:15:30;28.20;99.90
3190;DHT22;1606;51.946;10.558;2022-08-05T09:18:05;28.40;99.90
3190;DHT22;1606;51.946;10.558;2022-08-05T09:20:34;28.70;99.90
3190;DHT22;1606;51.946;10.558;2022-08-05T09:23:09;28.70;99.90
3190;DHT22;1606;51.946;10.558;2022-08-05T09:25:46;28.90;99.90
3190;DHT22;1606;51.946;10.558;2022-08-05T09:28:30;29.10;99.90
3190;DHT22;1606;51.946;10.558;2022-08-05T09:31:03;28.80;99.90
3190;DHT22;1606;51.946;10.558;2022-08-05T09:33:56;28.70;99.90
3190;DHT22;1606;51.946;10.558;2022-08-05T09:36:38;28.70;99.90
3190;DHT22;1606;51.946;10.558;2022-08-05T09:39:22;28.50;99.90
3190;DHT22;1606;51.946;10.558;2022-08-05T09:42:11;28.80;99.90
3190;DHT22;1606;51.946;10.558;2022-08-05T09:44:53;28.80;99.90
3190;DHT22;1606;51.946;10.558;2022-08-05T09:47:24;28.80;99.90
3190;DHT22;1606;51.946;10.558;2022-08-05T09:50:17;28.40;99.90
3190;DHT22;1606;51.946;10.558;2022-08-05T09:53:05;28.40;99.90
3190;DHT22;1606;51.946;10.558;2022-08-05T09:55:37;28.80;99.90
3190;DHT22;1606;51.946;10.558;2022-08-05T09:58:26;28.80;99.90
3190;DHT22;1606;51.946;10.558;2022-08-05T10:00:58;28.50;99.90
3190;DHT22;1606;51.946;10.558;2022-08-05T10:03:27;28.60;99.90
3190;DHT22;1606;51.946;10.558;2022-08-05T10:06:18;28.60;99.90
3190;DHT22;1606;51.946;10.558;2022-08-05T10:08:46;28.20;99.90
3190;DHT22;1606;51.946;10.558;2022-08-05T10:11:21;28.20;99.90
3190;DHT22;1606;51.946;10.558;2022-08-05T10:13:56;28.20;99.90
3190;DHT22;1606;51.946;10.558;2022-08-05T10:16:31;28.00;99.90
3190;DHT22;1606;51.946;10.558;2022-08-05T10:19:00;27.90;99.90
3190;DHT22;1606;51.946;10.558;2022-08-05T10:21:36;27.70;99.90
3190;DHT22;1606;51.946;10.558;2022-08-05T10:24:06;27.70;99.90
3190;DHT22;1606;51.946;10.558;2022-08-05T10:26:39;27.50;99.90
3190;DHT22;1606;51.946;10.558;2022-08-05T10:29:19;27.20;99.90
3190;DHT22;1606;51.946;10.558;2022-08-05T10:32:08;27.00;99.90
3190;DHT22;1606;51.946;10.558;2022-08-05T10:34:56;26.60;99.90
3190;DHT22;1606;51.946;10.558;2022-08-05T10:37:28;26.40;99.90
3190;DHT22;1606;51.946;10.558;2022-08-05T10:40:17;26.10;99.90
3190;DHT22;1606;51.946;10.558;2022-08-05T10:42:57;25.70;99.90
3190;DHT22;1606;51.946;10.558;2022-08-05T10:45:27;25.80;99.90
3190;DHT22;1606;51.946;10.558;2022-08-05T10:48:35;25.90;99.90
3190;DHT22;1606;51.946;10.558;2022-08-05T10:51:22;25.70;99.90
3190;DHT22;1606;51.946;10.558;2022-08-05T10:53:57;25.60;99.90
3190;DHT22;1606;51.946;10.558;2022-08-05T10:56:43;25.50;99.90
3190;DHT22;1606;51.946;10.558;2022-08-05T10:59:15;25.20;99.90
3190;DHT22;1606;51.946;10.558;2022-08-05T11:02:09;25.10;99.90
3190;DHT22;1606;51.946;10.558;2022-08-05T11:04:43;25.10;99.90
3190;DHT22;1606;51.946;10.558;2022-08-05T11:07:12;25.10;99.90
3190;DHT22;1606;51.946;10.558;2022-08-05T11:09:44;25.20;99.90
3190;DHT22;1606;51.946;10.558;2022-08-05T11:12:43;25.30;99.90
3190;DHT22;1606;51.946;10.558;2022-08-05T11:15:22;25.20;99.90
3190;DHT22;1606;51.946;10.558;2022-08-05T11:18:24;25.00;99.90
3190;DHT22;1606;51.946;10.558;2022-08-05T11:20:55;24.80;99.90
3190;DHT22;1606;51.946;10.558;2022-08-05T11:23:35;24.70;99.90
3190;DHT22;1606;51.946;10.558;2022-08-05T11:26:24;24.70;99.90
3190;DHT22;1606;51.946;10.558;2022-08-05T11:28:57;24.50;99.90
3190;DHT22;1606;51.946;10.558;2022-08-05T11:31:40;24.40;99.90
3190;DHT22;1606;51.946;10.558;2022-08-05T11:34:39;24.40;99.90
3190;DHT22;1606;51.946;10.558;2022-08-05T11:40:59;24.30;99.90
3190;DHT22;1606;51.946;10.558;2022-08-05T11:43:57;24.30;99.90
3190;DHT22;1606;51.946;10.558;2022-08-05T11:46:35;24.40;99.90
3190;DHT22;1606;51.946;10.558;2022-08-05T11:49:04;24.30;99.90
3190;DHT22;1606;51.946;10.558;2022-08-05T11:51:35;24.20;99.90
3190;DHT22;1606;51.946;10.558;2022-08-05T11:54:20;24.20;99.90
3190;DHT22;1606;51.946;10.558;2022-08-05T11:57:00;24.00;99.90
3190;DHT22;1606;51.946;10.558;2022-08-05T11:59:50;23.80;99.90
3190;DHT22;1606;51.946;10.558;2022-08-05T12:02:24;23.80;99.90
3190;DHT22;1606;51.946;10.558;2022-08-05T12:04:59;23.30;99.90
3190;DHT22;1606;51.946;10.558;2022-08-05T12:07:35;23.10;99.90
3190;DHT22;1606;51.946;10.558;2022-08-05T12:10:25;23.00;99.90
3190;DHT22;1606;51.946;10.558;2022-08-05T12:13:11;22.70;99.90
3190;DHT22;1606;51.946;10.558;2022-08-05T12:15:46;22.70;99.90
3190;DHT22;1606;51.946;10.558;2022-08-05T12:18:17;22.90;99.90
3190;DHT22;1606;51.946;10.558;2022-08-05T12:20:50;22.80;99.90
3190;DHT22;1606;51.946;10.558;2022-08-05T12:23:17;22.80;99.90
3190;DHT22;1606;51.946;10.558;2022-08-05T12:25:49;22.70;99.90
3190;DHT22;1606;51.946;10.558;2022-08-05T12:28:35;22.70;99.90
3190;DHT22;1606;51.946;10.558;2022-08-05T12:31:05;22.80;99.90
3190;DHT22;1606;51.946;10.558;2022-08-05T12:33:33;22.60;99.90
3190;DHT22;1606;51.946;10.558;2022-08-05T12:36:05;22.30;99.90
3190;DHT22;1606;51.946;10.558;2022-08-05T12:38:35;21.90;99.90
3190;DHT22;1606;51.946;10.558;2022-08-05T12:41:10;22.20;99.90
3190;DHT22;1606;51.946;10.558;2022-08-05T12:43:50;22.20;99.90
3190;DHT22;1606;51.946;10.558;2022-08-05T12:46:24;22.20;99.90
3190;DHT22;1606;51.946;10.558;2022-08-05T12:48:56;22.50;99.90
3190;DHT22;1606;51.946;10.558;2022-08-05T12:51:25;22.20;99.90
3190;DHT22;1606;51.946;10.558;2022-08-05T12:54:21;21.90;99.90
3190;DHT22;1606;51.946;10.558;2022-08-05T12:56:54;21.70;99.90
3190;DHT22;1606;51.946;10.558;2022-08-05T12:59:23;21.50;99.90
3190;DHT22;1606;51.946;10.558;2022-08-05T13:02:15;21.30;99.90
3190;DHT22;1606;51.946;10.558;2022-08-05T13:04:44;21.20;99.90
3190;DHT22;1606;51.946;10.558;2022-08-05T13:07:22;21.20;99.90
3190;DHT22;1606;51.946;10.558;2022-08-05T13:10:11;21.10;99.90
3190;DHT22;1606;51.946;10.558;2022-08-05T13:12:45;21.20;99.90
3190;DHT22;1606;51.946;10.558;2022-08-05T13:15:27;21.20;99.90
3190;DHT22;1606;51.946;10.558;2022-08-05T13:18:17;21.30;99.90
3190;DHT22;1606;51.946;10.558;2022-08-05T13:20:46;21.40;99.90
3190;DHT22;1606;51.946;10.558;2022-08-05T13:23:16;21.70;99.90
3190;DHT22;1606;51.946;10.558;2022-08-05T13:25:49;21.70;99.90
3190;DHT22;1606;51.946;10.558;2022-08-05T13:28:26;21.80;99.90
3190;DHT22;1606;51.946;10.558;2022-08-05T13:30:57;21.90;99.90
3190;DHT22;1606;51.946;10.558;2022-08-05T13:33:37;21.80;99.90
3190;DHT22;1606;51.946;10.558;2022-08-05T13:36:27;21.70;99.90
3190;DHT22;1606;51.946;10.558;2022-08-05T13:38:55;21.80;99.90
3190;DHT22;1606;51.946;10.558;2022-08-05T13:41:23;21.70;99.90
3190;DHT22;1606;51.946;10.558;2022-08-05T13:44:03;21.50;99.90
3190;DHT22;1606;51.946;10.558;2022-08-05T13:46:31;21.50;99.90
3190;DHT22;1606;51.946;10.558;2022-08-05T13:49:20;21.50;99.90
3190;DHT22;1606;51.946;10.558;2022-08-05T13:51:49;21.70;99.90
3190;DHT22;1606;51.946;10.558;2022-08-05T13:54:19;21.40;99.90
3190;DHT22;1606;51.946;10.558;2022-08-05T13:56:51;21.30;99.90
3190;DHT22;1606;51.946;10.558;2022-08-05T13:59:19;21.60;99.90
3190;DHT22;1606;51.946;10.558;2022-08-05T14:01:53;21.80;99.90
3190;DHT22;1606;51.946;10.558;2022-08-05T14:04:28;21.90;99.90
3190;DHT22;1606;51.946;10.558;2022-08-05T14:07:21;22.10;99.90
3190;DHT22;1606;51.946;10.558;2022-08-05T14:10:10;22.20;99.90
3190;DHT22;1606;51.946;10.558;2022-08-05T14:12:38;22.30;99.90
3190;DHT22;1606;51.946;10.558;2022-08-05T14:15:14;22.10;99.90
3190;DHT22;1606;51.946;10.558;2022-08-05T14:18:03;21.50;99.90
3190;DHT22;1606;51.946;10.558;2022-08-05T14:20:42;21.80;99.90
3190;DHT22;1606;51.946;10.558;2022-08-05T14:23:13;21.80;99.90
3190;DHT22;1606;51.946;10.558;2022-08-05T14:25:51;21.90;99.90
3190;DHT22;1606;51.946;10.558;2022-08-05T14:28:23;21.90;99.90
3190;DHT22;1606;51.946;10.558;2022-08-05T14:30:53;21.80;99.90
3190;DHT22;1606;51.946;10.558;2022-08-05T14:33:21;22.10;99.90
3190;DHT22;1606;51.946;10.558;2022-08-05T14:35:51;21.90;99.90
3190;DHT22;1606;51.946;10.558;2022-08-05T14:38:20;21.60;99.90
3190;DHT22;1606;51.946;10.558;2022-08-05T14:40:59;21.40;99.90
3190;DHT22;1606;51.946;10.558;2022-08-05T14:43:32;21.20;99.90
3190;DHT22;1606;51.946;10.558;2022-08-05T14:46:19;21.30;99.90
3190;DHT22;1606;51.946;10.558;2022-08-05T14:48:47;21.60;99.90
3190;DHT22;1606;51.946;10.558;2022-08-05T14:51:17;21.70;99.90
3190;DHT22;1606;51.946;10.558;2022-08-05T14:53:45;21.60;99.90
3190;DHT22;1606;51.946;10.558;2022-08-05T14:56:35;22.00;99.90
3190;DHT22;1606;51.946;10.558;2022-08-05T14:59:09;22.20;99.90
3190;DHT22;1606;51.946;10.558;2022-08-05T15:01:38;22.10;99.90
3190;DHT22;1606;51.946;10.558;2022-08-05T15:04:15;21.60;99.90
3190;DHT22;1606;51.946;10.558;2022-08-05T15:06:47;21.60;99.90
3190;DHT22;1606;51.946;10.558;2022-08-05T15:09:15;21.60;99.90
3190;DHT22;1606;51.946;10.558;2022-08-05T15:12:04;21.70;99.90
3190;DHT22;1606;51.946;10.558;2022-08-05T15:14:34;21.30;99.90
3190;DHT22;1606;51.946;10.558;2022-08-05T15:17:15;21.30;99.90
3190;DHT22;1606;51.946;10.558;2022-08-05T15:20:03;21.40;99.90
3190;DHT22;1606;51.946;10.558;2022-08-05T15:22:33;21.60;99.90
3190;DHT22;1606;51.946;10.558;2022-08-05T15:25:00;21.80;99.90
3190;DHT22;1606;51.946;10.558;2022-08-05T15:27:39;21.70;99.90
3190;DHT22;1606;51.946;10.558;2022-08-05T15:30:17;21.70;99.90
3190;DHT22;1606;51.946;10.558;2022-08-05T15:32:45;21.70;99.90
3190;DHT22;1606;51.946;10.558;2022-08-05T15:35:13;22.10;99.90
3190;DHT22;1606;51.946;10.558;2022-08-05T15:37:42;22.30;99.90
3190;DHT22;1606;51.946;10.558;2022-08-05T15:40:30;22.20;99.90
3190;DHT22;1606;51.946;10.558;2022-08-05T15:43:18;22.00;99.90
3190;DHT22;1606;51.946;10.558;2022-08-05T15:45:47;22.00;99.90
3190;DHT22;1606;51.946;10.558;2022-08-05T15:48:26;21.80;99.90
3190;DHT22;1606;51.946;10.558;2022-08-05T15:50:55;21.90;99.90
3190;DHT22;1606;51.946;10.558;2022-08-05T15:53:30;22.30;99.90
3190;DHT22;1606;51.946;10.558;2022-08-05T15:56:15;22.40;99.90
3190;DHT22;1606;51.946;10.558;2022-08-05T15:58:44;22.20;99.90
3190;DHT22;1606;51.946;10.558;2022-08-05T16:01:12;21.90;99.90
3190;DHT22;1606;51.946;10.558;2022-08-05T16:03:43;21.80;99.90
3190;DHT22;1606;51.946;10.558;2022-08-05T16:06:16;21.90;99.90
3190;DHT22;1606;51.946;10.558;2022-08-05T16:08:48;22.00;99.90
3190;DHT22;1606;51.946;10.558;2022-08-05T16:11:20;22.00;99.90
3190;DHT22;1606;51.946;10.558;2022-08-05T16:14:08;22.30;99.90
3190;DHT22;1606;51.946;10.558;2022-08-05T16:16:43;21.90;99.90
3190;DHT22;1606;51.946;10.558;2022-08-05T16:19:12;21.80;99.90
3190;DHT22;1606;51.946;10.558;2022-08-05T16:22:00;21.60;99.90
3190;DHT22;1606;51.946;10.558;2022-08-05T16:24:30;21.90;99.90
3190;DHT22;1606;51.946;10.558;2022-08-05T16:27:17;21.70;99.90
3190;DHT22;1606;51.946;10.558;2022-08-05T16:30:07;22.10;99.90
3190;DHT22;1606;51.946;10.558;2022-08-05T16:32:51;22.60;99.90
3190;DHT22;1606;51.946;10.558;2022-08-05T16:35:20;22.40;99.90
3190;DHT22;1606;51.946;10.558;2022-08-05T16:37:54;22.20;99.90
3190;DHT22;1606;51.946;10.558;2022-08-05T16:40:43;22.10;99.90
3190;DHT22;1606;51.946;10.558;2022-08-05T16:43:20;22.40;99.90
3190;DHT22;1606;51.946;10.558;2022-08-05T16:45:50;22.60;99.90
3190;DHT22;1606;51.946;10.558;2022-08-05T16:48:33;22.40;99.90